Time;durP1;ratioP1;P1;durP2;ratioP2;P2;SDS_P1;SDS_P2;PMS_P1;PMS_P2;Temp;Humidity;BMP_temperature;BMP_pressure;BME280_temperature;BME280_humidity;BME280_pressure;Samples;Min_cycle;Max_cycle;Signal;HPM_P1;HPM_P2
2023/10/26 00:00:15;;;;;;;18.57;11.90;;;;;;;;;;705126;27;1474;-69
2023/10/26 00:00:35;;;;;;;18.20;11.40;;;;;;;;;;705530;27;827;-67
2023/10/26 00:00:56;;;;;;;17.63;11.70;;;;;;;;;;704765;27;4462;-68
2023/10/26 00:01:17;;;;;;;17.88;10.95;;;;;;;;;;705151;27;1729;-67
2023/10/26 00:01:37;;;;;;;18.15;11.02;;;;;;;;;;704208;27;907;-70
2023/10/26 00:01:57;;;;;;;17.63;11.30;;;;;;;;;;705072;27;828;-63
2023/10/26 00:02:17;;;;;;;16.97;11.07;;;;;;;;;;704748;27;2118;-66
2023/10/26 00:02:38;;;;;;;17.75;11.48;;;;;;;;;;706961;27;958;-68
2023/10/26 00:02:58;;;;;;;18.80;11.63;;;;;;;;;;706890;27;1167;-68
2023/10/26 00:03:18;;;;;;;17.37;11.07;;;;;;;;;;704714;27;2368;-68
2023/10/26 00:03:38;;;;;;;17.53;11.17;;;;;;;;;;705732;27;809;-67
2023/10/26 00:03:59;;;;;;;17.40;11.37;;;;;;;;;;705076;27;4221;-67
2023/10/26 00:04:19;;;;;;;17.77;11.37;;;;;;;;;;704382;27;2608;-68
2023/10/26 00:04:40;;;;;;;17.25;11.25;;;;;;;;;;706649;27;1228;-67
2023/10/26 00:05:00;;;;;;;17.33;11.13;;;;;;;;;;705605;27;903;-67
2023/10/26 00:05:20;;;;;;;18.20;11.50;;;;;;;;;;705456;27;1820;-65
2023/10/26 00:05:41;;;;;;;16.77;11.07;;;;;;;;;;705066;27;923;-67
2023/10/26 00:06:01;;;;;;;16.50;11.03;;;;;;;;;;705174;27;1098;-67
2023/10/26 00:06:21;;;;;;;16.25;10.75;;;;;;;;;;704273;27;1825;-67
2023/10/26 00:06:42;;;;;;;17.77;10.93;;;;;;;;;;705356;27;806;-68
2023/10/26 00:07:04;;;;;;;18.73;11.65;;;;;;;;;;704907;27;4194;-68
2023/10/26 00:07:24;;;;;;;17.27;11.07;;;;;;;;;;706431;27;959;-67
2023/10/26 00:07:44;;;;;;;16.95;10.93;;;;;;;;;;705361;27;1033;-66
2023/10/26 00:08:04;;;;;;;17.87;11.10;;;;;;;;;;704559;27;1622;-67
2023/10/26 00:08:25;;;;;;;17.70;11.57;;;;;;;;;;705199;27;1453;-67
2023/10/26 00:08:45;;;;;;;17.83;11.20;;;;;;;;;;706198;27;924;-67
2023/10/26 00:09:05;;;;;;;16.93;11.03;;;;;;;;;;704746;27;1909;-67
2023/10/26 00:09:26;;;;;;;18.10;11.17;;;;;;;;;;705055;27;1193;-66
2023/10/26 00:09:47;;;;;;;19.27;11.17;;;;;;;;;;706052;27;4439;-67
2023/10/26 00:10:07;;;;;;;17.17;11.15;;;;;;;;;;703158;27;2222;-66
2023/10/26 00:10:27;;;;;;;18.27;11.43;;;;;;;;;;705802;27;879;-67
2023/10/26 00:10:49;;;;;;;18.25;11.13;;;;;;;;;;705892;27;963;-68
2023/10/26 00:11:09;;;;;;;18.50;11.30;;;;;;;;;;704254;27;1064;-69
2023/10/26 00:11:30;;;;;;;18.27;11.70;;;;;;;;;;706077;27;1100;-68
2023/10/26 00:11:50;;;;;;;18.23;11.07;;;;;;;;;;705002;27;934;-68
2023/10/26 00:12:10;;;;;;;17.37;11.33;;;;;;;;;;704326;27;1606;-67
2023/10/26 00:12:31;;;;;;;17.53;11.37;;;;;;;;;;704455;28;924;-67
2023/10/26 00:12:51;;;;;;;18.60;11.10;;;;;;;;;;704552;27;5182;-67
2023/10/26 00:13:11;;;;;;;19.00;11.53;;;;;;;;;;705324;27;1539;-67
2023/10/26 00:13:31;;;;;;;18.98;11.00;;;;;;;;;;704928;27;1383;-69
2023/10/26 00:13:52;;;;;;;18.37;10.47;;;;;;;;;;705055;27;935;-69
2023/10/26 00:14:12;;;;;;;19.70;11.13;;;;;;;;;;703620;27;1971;-67
2023/10/26 00:14:33;;;;;;;19.03;11.20;;;;;;;;;;706694;27;943;-67
2023/10/26 00:14:53;;;;;;;17.42;10.75;;;;;;;;;;705047;28;942;-67
2023/10/26 00:15:14;;;;;;;16.77;11.20;;;;;;;;;;704548;27;2821;-67
2023/10/26 00:15:34;;;;;;;16.87;11.03;;;;;;;;;;705265;27;774;-67
2023/10/26 00:15:55;;;;;;;17.83;10.93;;;;;;;;;;701777;28;4248;-68
2023/10/26 00:16:15;;;;;;;16.58;10.98;;;;;;;;;;701120;28;935;-66
2023/10/26 00:16:35;;;;;;;16.00;10.33;;;;;;;;;;702074;28;4429;-68
2023/10/26 00:16:55;;;;;;;16.97;10.50;;;;;;;;;;702576;28;1171;-66
2023/10/26 00:17:16;;;;;;;17.30;10.93;;;;;;;;;;701810;28;1279;-67
2023/10/26 00:17:37;;;;;;;17.00;11.03;;;;;;;;;;702576;28;885;-67
2023/10/26 00:17:57;;;;;;;17.63;11.05;;;;;;;;;;705258;27;955;-67
2023/10/26 00:18:17;;;;;;;18.07;11.43;;;;;;;;;;703154;27;1738;-66
2023/10/26 00:18:37;;;;;;;17.33;10.77;;;;;;;;;;704673;28;1024;-67
2023/10/26 00:18:58;;;;;;;18.92;11.05;;;;;;;;;;703296;28;4260;-69
2023/10/26 00:19:18;;;;;;;16.87;10.80;;;;;;;;;;699955;28;2097;-66
2023/10/26 00:19:38;;;;;;;16.10;10.45;;;;;;;;;;700953;28;781;-67
2023/10/26 00:19:59;;;;;;;16.67;10.97;;;;;;;;;;701213;28;779;-68
2023/10/26 00:20:19;;;;;;;16.43;10.60;;;;;;;;;;699563;28;1698;-68
2023/10/26 00:20:39;;;;;;;16.23;10.67;;;;;;;;;;701588;28;927;-68
2023/10/26 00:21:00;;;;;;;17.70;11.30;;;;;;;;;;703081;28;985;-67
2023/10/26 00:21:20;;;;;;;17.43;11.57;;;;;;;;;;702867;27;2494;-67
2023/10/26 00:21:41;;;;;;;17.05;11.35;;;;;;;;;;705172;27;978;-68
2023/10/26 00:22:01;;;;;;;16.77;11.00;;;;;;;;;;705290;27;4457;-68
2023/10/26 00:22:22;;;;;;;15.87;10.83;;;;;;;;;;705071;27;1903;-65
2023/10/26 00:22:42;;;;;;;17.33;10.83;;;;;;;;;;705991;27;824;-65
2023/10/26 00:23:04;;;;;;;17.23;11.10;;;;;;;;;;703863;28;986;-66
2023/10/26 00:23:24;;;;;;;17.55;11.20;;;;;;;;;;699271;28;1965;-68
2023/10/26 00:23:44;;;;;;;18.30;11.30;;;;;;;;;;700457;28;1597;-68
2023/10/26 00:24:05;;;;;;;18.23;11.67;;;;;;;;;;697849;28;2208;-69
2023/10/26 00:24:25;;;;;;;16.57;10.80;;;;;;;;;;700732;28;898;-68
2023/10/26 00:24:46;;;;;;;17.37;11.00;;;;;;;;;;700696;28;4254;-68
2023/10/26 00:25:06;;;;;;;18.08;10.85;;;;;;;;;;699515;28;1822;-67
2023/10/26 00:25:27;;;;;;;17.73;11.03;;;;;;;;;;703182;28;1390;-67
2023/10/26 00:25:47;;;;;;;16.83;11.00;;;;;;;;;;703799;28;856;-69
2023/10/26 00:26:07;;;;;;;16.57;11.33;;;;;;;;;;701414;28;2477;-68
2023/10/26 00:26:28;;;;;;;15.93;10.80;;;;;;;;;;702337;28;795;-68
2023/10/26 00:26:48;;;;;;;15.90;10.80;;;;;;;;;;703570;28;832;-67
2023/10/26 00:27:08;;;;;;;17.20;11.33;;;;;;;;;;701527;28;1080;-70
2023/10/26 00:27:28;;;;;;;17.10;11.18;;;;;;;;;;703828;28;916;-68
2023/10/26 00:27:51;;;;;;;16.57;10.77;;;;;;;;;;696067;28;4306;-67
2023/10/26 00:28:11;;;;;;;16.48;10.85;;;;;;;;;;695689;28;1774;-68
2023/10/26 00:28:31;;;;;;;16.55;10.80;;;;;;;;;;697168;28;1453;-67
2023/10/26 00:28:51;;;;;;;17.00;11.00;;;;;;;;;;697415;28;1022;-68
2023/10/26 00:29:12;;;;;;;17.50;11.33;;;;;;;;;;699935;28;2213;-68
2023/10/26 00:29:32;;;;;;;16.73;10.57;;;;;;;;;;700744;28;801;-68
2023/10/26 00:29:52;;;;;;;16.00;10.52;;;;;;;;;;699838;28;888;-68
2023/10/26 00:30:13;;;;;;;15.83;10.90;;;;;;;;;;698668;28;1835;-67
2023/10/26 00:30:33;;;;;;;15.50;10.90;;;;;;;;;;701895;28;1081;-68
2023/10/26 00:30:53;;;;;;;16.02;10.90;;;;;;;;;;701190;28;4350;-68
2023/10/26 00:31:14;;;;;;;17.33;11.10;;;;;;;;;;702135;28;1465;-68
2023/10/26 00:31:34;;;;;;;16.70;10.63;;;;;;;;;;700067;28;1491;-68
2023/10/26 00:31:54;;;;;;;16.53;10.50;;;;;;;;;;697409;28;883;-68
2023/10/26 00:32:15;;;;;;;16.63;10.57;;;;;;;;;;695901;28;2543;-67
2023/10/26 00:32:35;;;;;;;16.17;10.32;;;;;;;;;;696220;28;925;-68
2023/10/26 00:32:55;;;;;;;15.80;10.33;;;;;;;;;;696774;28;753;-69
2023/10/26 00:33:16;;;;;;;16.67;10.80;;;;;;;;;;694971;28;1121;-69
2023/10/26 00:33:36;;;;;;;18.40;11.33;;;;;;;;;;696444;28;879;-66
2023/10/26 00:33:56;;;;;;;16.97;11.13;;;;;;;;;;698981;28;5264;-67
2023/10/26 00:34:17;;;;;;;16.63;11.13;;;;;;;;;;697008;28;1939;-67
2023/10/26 00:34:37;;;;;;;16.13;10.87;;;;;;;;;;700202;28;1131;-67
2023/10/26 00:34:57;;;;;;;15.60;10.87;;;;;;;;;;700385;28;919;-67
2023/10/26 00:35:17;;;;;;;16.15;10.85;;;;;;;;;;699115;28;1282;-68
2023/10/26 00:35:39;;;;;;;16.48;10.43;;;;;;;;;;697574;28;1093;-68
2023/10/26 00:35:59;;;;;;;16.90;10.57;;;;;;;;;;696073;28;849;-66
2023/10/26 00:36:19;;;;;;;16.83;11.10;;;;;;;;;;690754;28;1811;-67
2023/10/26 00:36:40;;;;;;;17.17;10.93;;;;;;;;;;695530;28;861;-68
2023/10/26 00:37:00;;;;;;;18.53;11.03;;;;;;;;;;695327;28;4217;-67
2023/10/26 00:37:20;;;;;;;18.88;11.05;;;;;;;;;;697210;28;2298;-68
2023/10/26 00:37:40;;;;;;;17.93;11.17;;;;;;;;;;700231;28;761;-68
2023/10/26 00:38:01;;;;;;;18.47;11.33;;;;;;;;;;701323;28;884;-68
2023/10/26 00:38:21;;;;;;;17.42;11.00;;;;;;;;;;699177;28;2965;-68
2023/10/26 00:38:41;;;;;;;17.67;11.27;;;;;;;;;;700149;28;1185;-68
2023/10/26 00:39:02;;;;;;;16.93;11.00;;;;;;;;;;697754;28;1414;-68
2023/10/26 00:39:24;;;;;;;17.13;10.73;;;;;;;;;;693969;28;1741;-68
2023/10/26 00:39:44;;;;;;;17.27;11.20;;;;;;;;;;696095;28;812;-68
2023/10/26 00:40:05;;;;;;;16.83;11.23;;;;;;;;;;698328;28;4499;-68
2023/10/26 00:40:25;;;;;;;17.20;11.13;;;;;;;;;;700856;28;935;-68
2023/10/26 00:40:45;;;;;;;16.83;11.10;;;;;;;;;;701099;28;1285;-68
2023/10/26 00:41:05;;;;;;;16.57;11.00;;;;;;;;;;701687;28;1739;-68
2023/10/26 00:41:26;;;;;;;17.23;11.20;;;;;;;;;;703615;28;1212;-68
2023/10/26 00:41:49;;;;;;;16.27;10.90;;;;;;;;;;704203;28;958;-68
2023/10/26 00:42:11;;;;;;;16.35;10.90;;;;;;;;;;702535;28;1784;-67
2023/10/26 00:42:32;;;;;;;15.90;10.90;;;;;;;;;;704166;28;1074;-68
2023/10/26 00:42:58;;;;;;;16.37;10.70;;;;;;;;;;700696;28;4247;-70
2023/10/26 00:43:20;;;;;;;17.02;10.43;;;;;;;;;;697815;28;2118;-68
2023/10/26 00:43:40;;;;;;;15.60;10.60;;;;;;;;;;699055;28;812;-67
2023/10/26 00:44:01;;;;;;;15.93;10.60;;;;;;;;;;700148;28;935;-69
2023/10/26 00:44:21;;;;;;;16.80;10.67;;;;;;;;;;699052;28;2525;-68
2023/10/26 00:44:46;;;;;;;17.02;11.00;;;;;;;;;;699972;28;1255;-68
2023/10/26 00:45:06;;;;;;;15.65;10.80;;;;;;;;;;697965;28;2261;-68
2023/10/26 00:45:27;;;;;;;15.97;10.53;;;;;;;;;;701579;28;768;-67
2023/10/26 00:45:50;;;;;;;15.80;11.00;;;;;;;;;;699811;28;4745;-67
2023/10/26 00:46:11;;;;;;;15.15;10.27;;;;;;;;;;696658;28;1779;-68
2023/10/26 00:46:31;;;;;;;16.63;10.98;;;;;;;;;;699761;28;864;-67
2023/10/26 00:46:53;;;;;;;19.45;11.02;;;;;;;;;;698698;28;1230;-68
2023/10/26 00:47:14;;;;;;;17.50;10.70;;;;;;;;;;696747;28;1820;-69
2023/10/26 00:47:35;;;;;;;16.00;10.82;;;;;;;;;;699065;28;1261;-68
2023/10/26 00:47:55;;;;;;;16.27;10.48;;;;;;;;;;701573;28;837;-67
2023/10/26 00:48:15;;;;;;;14.93;10.20;;;;;;;;;;697708;28;1745;-62
2023/10/26 00:48:36;;;;;;;15.25;10.35;;;;;;;;;;700820;28;793;-66
2023/10/26 00:48:56;;;;;;;17.03;11.37;;;;;;;;;;702277;28;4625;-67
2023/10/26 00:49:17;;;;;;;18.10;11.63;;;;;;;;;;698515;28;1246;-69
2023/10/26 00:49:40;;;;;;;18.30;11.27;;;;;;;;;;699793;28;967;-67
2023/10/26 00:50:01;;;;;;;18.55;11.27;;;;;;;;;;701067;28;2073;-66
2023/10/26 00:50:21;;;;;;;16.83;11.30;;;;;;;;;;697376;28;2229;-67
2023/10/26 00:50:42;;;;;;;16.70;11.07;;;;;;;;;;699890;28;828;-68
2023/10/26 00:51:02;;;;;;;17.40;10.97;;;;;;;;;;695561;28;1439;-67
2023/10/26 00:51:23;;;;;;;17.20;11.23;;;;;;;;;;695971;28;2202;-69
2023/10/26 00:51:55;;;;;;;16.97;11.30;;;;;;;;;;696804;28;919;-67
2023/10/26 00:52:16;;;;;;;17.25;11.32;;;;;;;;;;698463;28;4948;-68
2023/10/26 00:52:37;;;;;;;17.60;11.47;;;;;;;;;;698155;28;1176;-68
2023/10/26 00:52:59;;;;;;;18.42;11.55;;;;;;;;;;702713;28;828;-68
2023/10/26 00:53:20;;;;;;;17.10;11.07;;;;;;;;;;702576;28;2261;-69
2023/10/26 00:53:40;;;;;;;17.17;11.50;;;;;;;;;;703484;28;723;-70
2023/10/26 00:54:02;;;;;;;17.38;11.48;;;;;;;;;;704547;28;860;-67
2023/10/26 00:54:24;;;;;;;18.00;11.15;;;;;;;;;;700097;28;1965;-68
2023/10/26 00:54:45;;;;;;;17.67;11.20;;;;;;;;;;698649;28;1182;-68
2023/10/26 00:55:06;;;;;;;17.60;11.05;;;;;;;;;;700190;28;4339;-68
2023/10/26 00:55:26;;;;;;;16.92;11.07;;;;;;;;;;697528;28;773;-69
2023/10/26 00:55:49;;;;;;;18.05;11.65;;;;;;;;;;694891;28;1283;-68
2023/10/26 00:56:10;;;;;;;17.42;11.80;;;;;;;;;;694658;28;2586;-68
2023/10/26 00:56:31;;;;;;;17.17;11.73;;;;;;;;;;699042;28;1455;-68
2023/10/26 00:56:52;;;;;;;17.60;11.77;;;;;;;;;;699324;28;1163;-68
2023/10/26 00:57:15;;;;;;;18.08;11.80;;;;;;;;;;698395;28;1434;-68
2023/10/26 00:57:35;;;;;;;18.48;11.27;;;;;;;;;;700207;28;891;-69
2023/10/26 00:57:56;;;;;;;19.27;11.60;;;;;;;;;;697624;28;4263;-68
2023/10/26 00:58:16;;;;;;;17.40;11.23;;;;;;;;;;697259;28;2332;-67
2023/10/26 00:58:37;;;;;;;16.17;11.32;;;;;;;;;;697369;28;1200;-68
2023/10/26 00:58:57;;;;;;;16.92;11.40;;;;;;;;;;697568;28;868;-68
2023/10/26 00:59:18;;;;;;;16.60;11.63;;;;;;;;;;695111;28;1716;-67
2023/10/26 00:59:39;;;;;;;17.73;11.60;;;;;;;;;;700759;28;1030;-65
2023/10/26 00:59:59;;;;;;;16.95;11.20;;;;;;;;;;699909;28;880;-66
2023/10/26 01:00:21;;;;;;;16.37;11.07;;;;;;;;;;699491;28;1770;-65
2023/10/26 01:00:41;;;;;;;17.25;11.18;;;;;;;;;;701029;28;1537;-66
2023/10/26 01:01:02;;;;;;;17.33;10.63;;;;;;;;;;700259;28;4338;-68
2023/10/26 01:01:22;;;;;;;17.00;11.00;;;;;;;;;;699913;28;1728;-67
2023/10/26 01:01:45;;;;;;;17.08;11.02;;;;;;;;;;702871;28;1025;-69
2023/10/26 01:02:05;;;;;;;17.23;11.07;;;;;;;;;;698741;28;1322;-67
2023/10/26 01:02:26;;;;;;;15.65;10.77;;;;;;;;;;700160;28;1878;-66
2023/10/26 01:02:46;;;;;;;17.30;11.23;;;;;;;;;;701957;28;918;-68
2023/10/26 01:03:06;;;;;;;16.93;11.20;;;;;;;;;;699661;28;1486;-65
2023/10/26 01:03:28;;;;;;;17.47;11.20;;;;;;;;;;697501;28;1227;-68
2023/10/26 01:03:49;;;;;;;17.67;11.48;;;;;;;;;;700847;28;4249;-69
2023/10/26 01:04:09;;;;;;;15.73;10.57;;;;;;;;;;701343;28;2010;-69
2023/10/26 01:04:29;;;;;;;16.00;10.73;;;;;;;;;;702514;28;962;-67
2023/10/26 01:04:50;;;;;;;16.05;10.57;;;;;;;;;;699202;28;1265;-68
2023/10/26 01:05:10;;;;;;;18.40;11.23;;;;;;;;;;699357;28;2225;-68
2023/10/26 01:05:30;;;;;;;19.13;11.50;;;;;;;;;;699908;28;900;-67
2023/10/26 01:05:51;;;;;;;17.93;11.43;;;;;;;;;;697126;28;981;-67
2023/10/26 01:06:13;;;;;;;16.45;11.05;;;;;;;;;;694750;28;1890;-68
2023/10/26 01:06:33;;;;;;;16.98;10.68;;;;;;;;;;696207;28;1672;-66
2023/10/26 01:06:54;;;;;;;17.07;10.77;;;;;;;;;;695418;28;4232;-67
2023/10/26 01:07:15;;;;;;;17.50;11.00;;;;;;;;;;696645;28;2534;-67
2023/10/26 01:07:36;;;;;;;16.73;10.52;;;;;;;;;;701259;28;1321;-67
2023/10/26 01:07:57;;;;;;;16.30;10.73;;;;;;;;;;698687;28;1243;-67
2023/10/26 01:08:17;;;;;;;16.83;10.70;;;;;;;;;;696277;28;1808;-67
2023/10/26 01:08:37;;;;;;;16.57;10.63;;;;;;;;;;700259;28;1379;-68
2023/10/26 01:08:58;;;;;;;16.02;11.00;;;;;;;;;;700065;28;986;-67
2023/10/26 01:09:20;;;;;;;16.02;10.52;;;;;;;;;;698731;28;1920;-69
2023/10/26 01:09:40;;;;;;;16.25;10.50;;;;;;;;;;697202;28;1246;-68
2023/10/26 01:10:00;;;;;;;16.63;10.90;;;;;;;;;;697342;28;4221;-68
2023/10/26 01:10:20;;;;;;;16.10;10.70;;;;;;;;;;698685;28;980;-68
2023/10/26 01:10:41;;;;;;;15.53;10.60;;;;;;;;;;700622;28;1178;-67
2023/10/26 01:11:02;;;;;;;16.35;10.70;;;;;;;;;;696906;28;1398;-68
2023/10/26 01:11:23;;;;;;;17.70;10.50;;;;;;;;;;695723;28;2035;-68
2023/10/26 01:11:43;;;;;;;15.83;10.70;;;;;;;;;;696889;28;944;-68
2023/10/26 01:12:04;;;;;;;17.10;10.95;;;;;;;;;;698089;28;1348;-67
2023/10/26 01:12:25;;;;;;;16.47;10.70;;;;;;;;;;696369;28;1732;-68
2023/10/26 01:12:45;;;;;;;16.07;10.70;;;;;;;;;;694507;28;5033;-69
2023/10/26 01:13:05;;;;;;;16.98;10.43;;;;;;;;;;693166;28;1351;-67
2023/10/26 01:13:26;;;;;;;17.43;11.20;;;;;;;;;;692701;28;1751;-66
2023/10/26 01:13:47;;;;;;;16.87;11.00;;;;;;;;;;694129;28;1255;-68
2023/10/26 01:14:07;;;;;;;17.23;10.47;;;;;;;;;;695456;28;1910;-67
2023/10/26 01:14:27;;;;;;;16.93;11.17;;;;;;;;;;693948;28;1719;-68
2023/10/26 01:14:48;;;;;;;17.23;10.57;;;;;;;;;;699697;28;1328;-67
2023/10/26 01:15:08;;;;;;;16.70;10.57;;;;;;;;;;700742;28;2630;-68
2023/10/26 01:15:29;;;;;;;16.77;10.30;;;;;;;;;;700051;28;1139;-67
2023/10/26 01:15:49;;;;;;;15.82;10.45;;;;;;;;;;695958;28;4344;-66
2023/10/26 01:16:09;;;;;;;16.40;10.47;;;;;;;;;;698437;28;1804;-67
2023/10/26 01:16:30;;;;;;;15.50;10.53;;;;;;;;;;697888;28;1491;-69
2023/10/26 01:16:51;;;;;;;15.98;10.15;;;;;;;;;;700935;28;868;-66
2023/10/26 01:17:11;;;;;;;17.30;10.30;;;;;;;;;;699324;28;2269;-67
2023/10/26 01:17:33;;;;;;;16.98;10.88;;;;;;;;;;704235;28;915;-67
2023/10/26 01:17:53;;;;;;;16.70;11.13;;;;;;;;;;701010;28;1226;-68
2023/10/26 01:18:13;;;;;;;15.57;10.73;;;;;;;;;;696792;28;1745;-67
2023/10/26 01:18:34;;;;;;;15.88;10.68;;;;;;;;;;700064;28;900;-68
2023/10/26 01:18:57;;;;;;;16.37;11.23;;;;;;;;;;696733;28;4455;-68
2023/10/26 01:19:17;;;;;;;16.40;10.85;;;;;;;;;;695613;28;1842;-68
2023/10/26 01:19:46;;;;;;;16.30;10.90;;;;;;;;;;697506;28;793;-72
2023/10/26 01:20:06;;;;;;;16.60;10.80;;;;;;;;;;701960;28;825;-68
2023/10/26 01:20:27;;;;;;;15.00;10.20;;;;;;;;;;699568;28;1443;-68
2023/10/26 01:20:47;;;;;;;14.73;10.47;;;;;;;;;;699630;28;1147;-67
2023/10/26 01:21:09;;;;;;;17.23;10.73;;;;;;;;;;703247;28;868;-67
2023/10/26 01:21:29;;;;;;;15.73;10.77;;;;;;;;;;700043;28;962;-68
2023/10/26 01:21:50;;;;;;;15.87;10.23;;;;;;;;;;695917;28;4331;-68
2023/10/26 01:22:11;;;;;;;15.85;10.75;;;;;;;;;;696148;28;2145;-67
2023/10/26 01:22:31;;;;;;;16.63;10.40;;;;;;;;;;697560;28;1250;-68
2023/10/26 01:22:51;;;;;;;15.50;10.27;;;;;;;;;;696106;28;750;-68
2023/10/26 01:23:12;;;;;;;16.60;10.63;;;;;;;;;;696608;28;2505;-69
2023/10/26 01:23:32;;;;;;;16.97;10.60;;;;;;;;;;697065;28;1256;-68
2023/10/26 01:23:52;;;;;;;15.53;10.20;;;;;;;;;;700034;28;1429;-69
2023/10/26 01:24:13;;;;;;;15.52;10.40;;;;;;;;;;696021;28;1941;-68
2023/10/26 01:24:33;;;;;;;16.07;10.73;;;;;;;;;;698993;28;947;-68
2023/10/26 01:24:53;;;;;;;16.50;10.47;;;;;;;;;;698323;28;4260;-68
2023/10/26 01:25:13;;;;;;;16.58;10.75;;;;;;;;;;697553;28;2076;-68
2023/10/26 01:25:34;;;;;;;16.50;10.57;;;;;;;;;;700441;28;1057;-68
2023/10/26 01:25:55;;;;;;;16.33;10.30;;;;;;;;;;696975;28;861;-68
2023/10/26 01:26:15;;;;;;;14.70;9.95;;;;;;;;;;699023;28;2480;-68
2023/10/26 01:26:35;;;;;;;17.42;10.73;;;;;;;;;;700252;28;1182;-68
2023/10/26 01:26:56;;;;;;;17.08;10.60;;;;;;;;;;697652;28;1483;-67
2023/10/26 01:27:17;;;;;;;14.83;10.17;;;;;;;;;;694050;28;1269;-68
2023/10/26 01:27:38;;;;;;;15.27;10.40;;;;;;;;;;694511;28;960;-69
2023/10/26 01:27:58;;;;;;;15.65;10.43;;;;;;;;;;694328;28;4325;-68
2023/10/26 01:28:19;;;;;;;17.17;11.05;;;;;;;;;;691548;28;1732;-68
2023/10/26 01:28:39;;;;;;;18.37;11.47;;;;;;;;;;696228;28;828;-68
2023/10/26 01:29:03;;;;;;;17.10;11.43;;;;;;;;;;697601;28;1038;-68
2023/10/26 01:29:23;;;;;;;15.88;11.13;;;;;;;;;;697730;28;2212;-69
2023/10/26 01:29:43;;;;;;;16.63;10.90;;;;;;;;;;701870;28;792;-68
2023/10/26 01:30:04;;;;;;;17.17;10.80;;;;;;;;;;704628;28;907;-68
2023/10/26 01:30:25;;;;;;;17.77;11.10;;;;;;;;;;704286;27;1941;-67
2023/10/26 01:30:45;;;;;;;18.23;11.27;;;;;;;;;;704167;28;4560;-67
2023/10/26 01:31:06;;;;;;;17.02;10.85;;;;;;;;;;701228;28;1339;-68
2023/10/26 01:31:26;;;;;;;15.47;10.73;;;;;;;;;;700837;28;2382;-68
2023/10/26 01:31:48;;;;;;;16.07;11.20;;;;;;;;;;700063;28;1361;-68
2023/10/26 01:32:09;;;;;;;16.05;11.27;;;;;;;;;;697318;28;1315;-68
2023/10/26 01:32:30;;;;;;;16.38;11.43;;;;;;;;;;696039;28;1035;-68
2023/10/26 01:32:50;;;;;;;16.40;11.17;;;;;;;;;;698746;28;801;-68
2023/10/26 01:33:10;;;;;;;16.73;11.00;;;;;;;;;;698339;28;1524;-69
2023/10/26 01:33:31;;;;;;;17.20;11.27;;;;;;;;;;696693;28;921;-68
2023/10/26 01:33:52;;;;;;;17.58;11.35;;;;;;;;;;698266;28;4287;-68
2023/10/26 01:34:12;;;;;;;18.37;11.67;;;;;;;;;;699788;28;2368;-68
2023/10/26 01:34:32;;;;;;;17.63;11.40;;;;;;;;;;700780;28;3030;-68
2023/10/26 01:34:53;;;;;;;16.70;11.25;;;;;;;;;;701053;28;751;-67
2023/10/26 01:35:13;;;;;;;16.80;10.97;;;;;;;;;;697017;28;2292;-67
2023/10/26 01:35:38;;;;;;;16.75;11.10;;;;;;;;;;701047;28;888;-68
2023/10/26 01:35:58;;;;;;;18.05;11.80;;;;;;;;;;699839;28;1533;-67
2023/10/26 01:36:18;;;;;;;18.23;11.70;;;;;;;;;;699180;28;2359;-67
2023/10/26 01:36:39;;;;;;;17.70;11.93;;;;;;;;;;699197;28;871;-69
2023/10/26 01:37:02;;;;;;;17.93;11.67;;;;;;;;;;700896;28;4224;-68
2023/10/26 01:37:22;;;;;;;18.40;11.98;;;;;;;;;;701108;28;2317;-68
2023/10/26 01:37:42;;;;;;;17.50;11.27;;;;;;;;;;703699;28;843;-68
2023/10/26 01:38:03;;;;;;;17.27;11.88;;;;;;;;;;702597;28;1363;-68
2023/10/26 01:38:23;;;;;;;17.40;12.07;;;;;;;;;;701661;28;1719;-68
2023/10/26 01:38:43;;;;;;;17.73;12.47;;;;;;;;;;699199;28;1247;-68
2023/10/26 01:39:04;;;;;;;18.20;12.27;;;;;;;;;;699376;28;5697;-67
2023/10/26 01:39:25;;;;;;;18.97;12.33;;;;;;;;;;697917;28;2193;-69
2023/10/26 01:39:46;;;;;;;19.65;11.95;;;;;;;;;;697829;28;4404;-68
2023/10/26 01:40:09;;;;;;;19.73;11.57;;;;;;;;;;698549;28;908;-68
2023/10/26 01:40:31;;;;;;;17.10;11.25;;;;;;;;;;695745;28;1418;-68
2023/10/26 01:40:52;;;;;;;18.15;11.65;;;;;;;;;;695770;28;1279;-68
2023/10/26 01:41:12;;;;;;;18.37;11.43;;;;;;;;;;695414;28;2046;-68
2023/10/26 01:41:32;;;;;;;18.57;11.93;;;;;;;;;;698033;28;1015;-68
2023/10/26 01:41:53;;;;;;;17.80;11.53;;;;;;;;;;699879;28;876;-68
2023/10/26 01:42:13;;;;;;;16.70;11.00;;;;;;;;;;696276;28;1377;-68
2023/10/26 01:42:33;;;;;;;16.25;11.32;;;;;;;;;;697668;28;1165;-68
2023/10/26 01:42:54;;;;;;;18.70;11.57;;;;;;;;;;698946;28;4421;-69
2023/10/26 01:43:15;;;;;;;17.83;11.40;;;;;;;;;;698406;28;1280;-68
2023/10/26 01:43:35;;;;;;;16.87;11.60;;;;;;;;;;700461;28;848;-68
2023/10/26 01:43:55;;;;;;;17.35;11.45;;;;;;;;;;700313;28;915;-68
2023/10/26 01:44:16;;;;;;;19.00;11.33;;;;;;;;;;701381;28;1966;-68
2023/10/26 01:44:37;;;;;;;16.23;10.80;;;;;;;;;;697474;28;828;-68
2023/10/26 01:44:57;;;;;;;17.52;11.15;;;;;;;;;;697199;28;1938;-68
2023/10/26 01:45:17;;;;;;;16.13;11.23;;;;;;;;;;699920;28;1719;-68
2023/10/26 01:45:38;;;;;;;17.97;11.57;;;;;;;;;;698177;28;873;-66
2023/10/26 01:45:58;;;;;;;16.83;11.35;;;;;;;;;;697485;28;4424;-68
2023/10/26 01:46:19;;;;;;;16.67;11.48;;;;;;;;;;697291;28;1742;-67
2023/10/26 01:46:39;;;;;;;17.97;11.57;;;;;;;;;;697179;28;1655;-67
2023/10/26 01:47:00;;;;;;;17.45;11.25;;;;;;;;;;700028;28;898;-69
2023/10/26 01:47:20;;;;;;;17.60;11.80;;;;;;;;;;695492;28;1724;-67
2023/10/26 01:47:41;;;;;;;17.48;12.10;;;;;;;;;;698779;28;1295;-67
2023/10/26 01:48:04;;;;;;;18.73;12.33;;;;;;;;;;698993;28;1232;-69
2023/10/26 01:48:25;;;;;;;17.67;11.32;;;;;;;;;;698018;28;1733;-67
2023/10/26 01:48:45;;;;;;;17.93;12.23;;;;;;;;;;701618;28;4561;-67
2023/10/26 01:49:05;;;;;;;18.10;12.20;;;;;;;;;;701529;28;900;-67
2023/10/26 01:49:26;;;;;;;18.87;12.13;;;;;;;;;;701294;28;1734;-68
2023/10/26 01:49:46;;;;;;;20.17;12.20;;;;;;;;;;703174;28;922;-68
2023/10/26 01:50:07;;;;;;;18.85;12.13;;;;;;;;;;702808;28;885;-68
2023/10/26 01:50:29;;;;;;;21.48;12.20;;;;;;;;;;698346;28;1852;-68
2023/10/26 01:50:50;;;;;;;18.00;12.25;;;;;;;;;;701331;28;884;-69
2023/10/26 01:51:11;;;;;;;18.00;12.23;;;;;;;;;;699017;28;2321;-69
2023/10/26 01:51:31;;;;;;;19.58;11.80;;;;;;;;;;698929;28;931;-69
2023/10/26 01:51:51;;;;;;;18.07;11.67;;;;;;;;;;699178;28;4389;-69
2023/10/26 01:52:12;;;;;;;17.07;11.30;;;;;;;;;;699975;28;2094;-69
2023/10/26 01:52:32;;;;;;;17.40;11.85;;;;;;;;;;701063;28;1215;-69
2023/10/26 01:52:53;;;;;;;18.50;11.97;;;;;;;;;;700989;28;903;-69
2023/10/26 01:53:13;;;;;;;18.25;11.65;;;;;;;;;;702260;28;1667;-70
2023/10/26 01:53:34;;;;;;;17.88;11.55;;;;;;;;;;702522;28;1117;-69
2023/10/26 01:53:54;;;;;;;17.03;11.43;;;;;;;;;;703541;28;1070;-69
2023/10/26 01:54:14;;;;;;;16.47;11.60;;;;;;;;;;699163;28;2002;-68
2023/10/26 01:54:35;;;;;;;16.52;11.60;;;;;;;;;;696791;28;1462;-69
2023/10/26 01:54:55;;;;;;;17.23;11.33;;;;;;;;;;698239;28;4389;-68
2023/10/26 01:55:15;;;;;;;18.30;11.97;;;;;;;;;;695512;28;1855;-69
2023/10/26 01:55:36;;;;;;;18.45;11.60;;;;;;;;;;695632;28;1376;-68
2023/10/26 01:55:56;;;;;;;19.47;12.20;;;;;;;;;;695962;28;1300;-69
2023/10/26 01:56:16;;;;;;;18.20;11.73;;;;;;;;;;697149;28;1760;-68
2023/10/26 01:56:36;;;;;;;18.65;12.35;;;;;;;;;;696928;28;1155;-68
2023/10/26 01:56:58;;;;;;;19.33;12.73;;;;;;;;;;698311;28;1306;-69
2023/10/26 01:57:19;;;;;;;17.77;11.48;;;;;;;;;;695981;28;2215;-68
2023/10/26 01:57:39;;;;;;;17.53;11.53;;;;;;;;;;697333;28;1252;-67
2023/10/26 01:57:59;;;;;;;18.48;12.05;;;;;;;;;;695724;28;4383;-68
2023/10/26 01:58:20;;;;;;;19.27;12.37;;;;;;;;;;695233;28;1714;-67
2023/10/26 01:58:40;;;;;;;17.92;11.50;;;;;;;;;;695651;28;991;-67
2023/10/26 01:59:00;;;;;;;17.30;11.80;;;;;;;;;;698610;28;1227;-67
2023/10/26 01:59:21;;;;;;;16.73;11.60;;;;;;;;;;696782;28;1764;-68
2023/10/26 01:59:42;;;;;;;17.88;11.57;;;;;;;;;;695236;28;1383;-68
2023/10/26 02:00:03;;;;;;;18.17;11.48;;;;;;;;;;698394;28;1442;-67
2023/10/26 02:00:32;;;;;;;17.67;11.25;;;;;;;;;;697976;28;672;-71
2023/10/26 02:00:52;;;;;;;16.70;11.10;;;;;;;;;;697634;28;4419;-69
2023/10/26 02:01:13;;;;;;;16.77;11.57;;;;;;;;;;695500;28;2064;-68
2023/10/26 02:01:33;;;;;;;18.13;11.80;;;;;;;;;;701721;28;827;-68
2023/10/26 02:01:53;;;;;;;18.43;12.00;;;;;;;;;;702211;28;1266;-67
2023/10/26 02:02:14;;;;;;;18.05;12.05;;;;;;;;;;698577;28;2265;-68
2023/10/26 02:02:34;;;;;;;17.43;12.00;;;;;;;;;;697228;28;1199;-67
2023/10/26 02:02:55;;;;;;;17.67;11.60;;;;;;;;;;693756;28;1471;-67
2023/10/26 02:03:18;;;;;;;17.98;11.73;;;;;;;;;;696224;28;1382;-68
2023/10/26 02:03:38;;;;;;;18.17;12.30;;;;;;;;;;694440;28;1403;-67
2023/10/26 02:03:58;;;;;;;19.02;12.70;;;;;;;;;;693240;28;4377;-68
2023/10/26 02:04:19;;;;;;;17.90;11.87;;;;;;;;;;696536;28;1256;-67
2023/10/26 02:04:39;;;;;;;18.53;11.93;;;;;;;;;;700411;28;885;-68
2023/10/26 02:05:00;;;;;;;18.35;11.70;;;;;;;;;;700120;28;1171;-68